South Manitou, Michigan
Current Conditions -  °F | °C
As of 8:53 AM on Thursday 30 Oct 2014 (Local Time) from KTVC Reporting Station
Overcast Overcast  
Wind Chill: 42°   Ceiling: 3800
Heat Index: 42°   Visibility: 10mi
Dew Point: 36°   Wind: 3mph
Humidity: 79%   Direction: 160°SSE
Pressure: 30.08"   Gusts: NA
Location:  45.1128°N, 86.0164°W
Report Text: KTVC 301253Z 16003KT 10SM OVC038 06/02 A3008 RMK AO2 SLP189 T00560022
Loading
Personal Weather Stations






























Interactive Weather Map
Tropical Storm Tracking
New forecast layout! Learn more

10-Day Weather Forecast

Advertisements
Track Severe Weather on mobile